KDLH/DLH METAR and TAF weather

Enter ICAO airport designator
Station Type Date Time Source
KDLH METAR 2018/04/21 10:55 UTC NOAA

KDLH 211055Z 33005KT 10SM CLR 02/M07 A3038 RMK AO2 SLP301 T00171072


Station Type Date Time Source
KDLH Decoded METAR 2018/04/21 10:55 UTC NOAA

Duluth, Duluth International Airport, MN, United States (KDLH) 46-50-34N 092-13-34W 435M
Apr 21, 2018 - 06:55 AM EDT / 2018.04.21 1055 UTC
Wind: from the NNW (330 degrees) at 6 MPH (5 KT):0
Visibility: 10 mile(s):0
Sky conditions: clear
Temperature: 35.1 F (1.7 C)
Dew Point: 19.0 F (-7.2 C)
Relative Humidity: 51%
Pressure (altimeter): 30.38 in. Hg (1028 hPa)
ob: KDLH 211055Z 33005KT 10SM CLR 02/M07 A3038 RMK AO2 SLP301 T00171072
cycle: 11

Station Type Date Time Source
KDLH TAF 2018/04/21 12:22 UTC NOAA

TAF KDLH 211120Z 2112/2212 VRB05KT P6SM SKC


Example: see airport list